createdAt,value
2023-02-16T00:02:54.455Z,3.10
2023-02-16T00:06:58.433Z,3.10
2023-02-16T00:11:18.783Z,3.00
2023-02-16T00:15:22.006Z,3.20
2023-02-16T00:19:27.832Z,3.10
2023-02-16T00:23:30.600Z,3.10
2023-02-16T00:27:33.634Z,3.30
2023-02-16T00:31:36.585Z,3.30
2023-02-16T00:35:40.827Z,3.40
2023-02-16T00:39:45.346Z,3.30
2023-02-16T00:43:48.158Z,3.40
2023-02-16T00:47:53.010Z,3.40
2023-02-16T00:51:57.368Z,3.40
2023-02-16T00:56:00.359Z,3.40
2023-02-16T01:00:09.823Z,3.40
2023-02-16T01:04:20.334Z,3.40
2023-02-16T01:08:41.804Z,3.30
2023-02-16T01:12:44.628Z,3.30
2023-02-16T01:16:47.402Z,3.20
2023-02-16T01:20:50.557Z,3.10
2023-02-16T01:24:54.662Z,3.00
2023-02-16T01:28:57.499Z,2.90
2023-02-16T01:33:00.261Z,2.90
2023-02-16T01:37:04.688Z,2.80
2023-02-16T01:41:22.627Z,2.90
2023-02-16T01:45:33.546Z,2.90
2023-02-16T01:49:36.356Z,2.70
2023-02-16T01:53:42.937Z,2.70
2023-02-16T01:57:51.073Z,2.70
2023-02-16T02:01:56.204Z,2.50
2023-02-16T02:05:59.009Z,2.60
2023-02-16T02:10:08.330Z,2.50
2023-02-16T02:14:17.173Z,2.50
2023-02-16T02:18:20.065Z,2.50
2023-02-16T02:23:20.159Z,2.50
2023-02-16T02:27:27.007Z,2.40
2023-02-16T02:31:45.580Z,2.40
2023-02-16T02:35:55.935Z,2.30
2023-02-16T02:40:06.333Z,2.30
2023-02-16T02:44:11.584Z,2.30
2023-02-16T02:48:15.051Z,2.10
2023-02-16T02:52:18.275Z,2.10
2023-02-16T02:56:39.167Z,2.10
2023-02-16T03:00:47.804Z,1.90
2023-02-16T03:04:53.186Z,1.90
2023-02-16T03:09:00.835Z,1.80
2023-02-16T03:13:05.959Z,1.70
2023-02-16T03:17:31.216Z,1.70
2023-02-16T03:21:52.805Z,1.80
2023-02-16T03:26:13.634Z,1.90
2023-02-16T03:30:19.569Z,1.80
2023-02-16T03:34:24.366Z,1.70
2023-02-16T03:38:27.476Z,1.80
2023-02-16T03:42:30.350Z,1.80
2023-02-16T03:46:33.254Z,1.90
2023-02-16T03:50:37.474Z,1.90
2023-02-16T03:54:40.280Z,1.80
2023-02-16T03:58:43.150Z,1.80
2023-02-16T04:02:45.909Z,1.90
2023-02-16T04:06:50.028Z,1.80
2023-02-16T04:10:54.213Z,1.60
2023-02-16T04:14:57.007Z,1.60
2023-02-16T04:18:59.804Z,1.50
2023-02-16T04:23:04.261Z,1.40
2023-02-16T04:27:07.102Z,1.50
2023-02-16T04:31:10.003Z,1.50
2023-02-16T04:35:13.128Z,1.50
2023-02-16T04:39:17.507Z,1.60
2023-02-16T04:43:20.297Z,1.50
2023-02-16T04:47:25.841Z,1.50
2023-02-16T04:51:28.732Z,1.50
2023-02-16T04:55:32.856Z,1.60
2023-02-16T04:59:36.058Z,1.60
2023-02-16T05:03:38.850Z,1.60
2023-02-16T05:07:41.632Z,1.50
2023-02-16T05:12:03.061Z,1.50
2023-02-16T05:16:06.587Z,1.50
2023-02-16T05:20:10.214Z,1.60
2023-02-16T05:24:13.293Z,1.50
2023-02-16T05:28:17.521Z,1.50
2023-02-16T05:32:21.073Z,1.60
2023-02-16T05:36:24.878Z,1.50
2023-02-16T05:40:27.712Z,1.50
2023-02-16T05:44:31.941Z,1.50
2023-02-16T05:48:34.788Z,1.40
2023-02-16T05:52:37.652Z,1.40
2023-02-16T05:56:40.428Z,1.40
2023-02-16T06:00:44.554Z,1.40
2023-02-16T06:04:47.357Z,1.50
2023-02-16T06:08:50.339Z,1.50
2023-02-16T06:12:53.125Z,1.50
2023-02-16T06:16:58.736Z,1.50
2023-02-16T06:21:01.684Z,1.50
2023-02-16T06:25:05.006Z,1.50
2023-02-16T06:29:07.900Z,1.40
2023-02-16T06:33:12.090Z,1.50
2023-02-16T06:37:14.945Z,1.50
2023-02-16T06:41:31.195Z,1.70
2023-02-16T06:45:34.084Z,1.80
2023-02-16T06:49:38.280Z,1.90
2023-02-16T06:53:41.290Z,2.10
2023-02-16T06:57:44.125Z,2.20
2023-02-16T07:01:46.921Z,2.60
2023-02-16T07:05:51.655Z,3.00
2023-02-16T07:09:54.568Z,3.40
2023-02-16T07:13:57.367Z,3.80
2023-02-16T07:18:00.172Z,4.20
2023-02-16T07:22:05.378Z,4.40
2023-02-16T07:26:08.527Z,4.40
2023-02-16T07:30:12.426Z,4.50
2023-02-16T07:34:15.294Z,4.60
2023-02-16T07:38:19.497Z,4.60
2023-02-16T07:42:22.495Z,4.50
2023-02-16T07:46:27.660Z,4.60
2023-02-16T07:50:30.463Z,4.80
2023-02-16T07:54:34.896Z,4.90
2023-02-16T07:58:38.104Z,4.90
2023-02-16T08:02:41.402Z,5.00
2023-02-16T08:06:45.924Z,5.10
2023-02-16T08:10:50.077Z,5.20
2023-02-16T08:14:52.934Z,5.30
2023-02-16T08:18:57.753Z,5.40
2023-02-16T08:23:00.533Z,5.60
2023-02-16T08:27:06.286Z,5.80
2023-02-16T08:31:10.123Z,5.90
2023-02-16T08:35:13.568Z,6.00
2023-02-16T08:39:17.993Z,6.20
2023-02-16T08:43:22.525Z,6.30
2023-02-16T08:47:25.288Z,6.50
2023-02-16T08:51:29.255Z,6.70
2023-02-16T08:55:32.003Z,6.70
2023-02-16T08:59:36.131Z,6.80
2023-02-16T09:03:41.225Z,7.00
2023-02-16T09:07:44.064Z,7.20
2023-02-16T09:11:47.008Z,7.30
2023-02-16T09:15:51.576Z,7.40
2023-02-16T09:19:54.332Z,7.60
2023-02-16T09:23:58.203Z,7.70
2023-02-16T09:28:01.062Z,8.00
2023-02-16T09:32:05.295Z,8.20
2023-02-16T09:36:10.665Z,8.30
2023-02-16T09:40:15.113Z,8.50
2023-02-16T09:44:25.672Z,8.90
2023-02-16T09:48:36.313Z,9.40
2023-02-16T09:52:41.771Z,10.20
2023-02-16T09:56:50.435Z,11.30
2023-02-16T10:00:57.371Z,13.70
2023-02-16T10:05:18.270Z,14.90
2023-02-16T10:09:22.049Z,15.60
2023-02-16T10:13:34.712Z,16.50
2023-02-16T10:17:45.240Z,18.20
2023-02-16T10:21:52.531Z,19.60
2023-02-16T10:26:00.641Z,21.50
2023-02-16T10:30:03.520Z,23.10
2023-02-16T10:34:23.412Z,23.90
2023-02-16T10:38:35.723Z,23.50
2023-02-16T10:42:43.842Z,23.10
2023-02-16T10:46:49.436Z,22.10
2023-02-16T10:50:58.620Z,21.70
2023-02-16T10:55:02.829Z,22.40
2023-02-16T10:59:08.279Z,22.80
2023-02-16T11:03:15.444Z,23.10
2023-02-16T11:07:20.148Z,23.70
2023-02-16T11:11:26.321Z,23.50
2023-02-16T11:15:29.529Z,24.30
2023-02-16T11:19:33.493Z,23.80
2023-02-16T11:23:37.718Z,24.00
2023-02-16T11:27:52.254Z,25.80
2023-02-16T11:31:55.669Z,26.30
2023-02-16T11:35:58.844Z,25.40
2023-02-16T11:40:05.954Z,23.90
2023-02-16T11:44:27.109Z,26.10
2023-02-16T11:48:32.586Z,27.10
2023-02-16T11:52:35.529Z,27.30
2023-02-16T11:56:39.299Z,26.60
2023-02-16T12:00:57.495Z,26.80
2023-02-16T12:05:19.377Z,27.30
2023-02-16T12:09:31.239Z,28.00
2023-02-16T12:13:39.685Z,28.50
2023-02-16T12:17:56.816Z,27.20
2023-02-16T12:22:06.035Z,26.60
2023-02-16T12:26:27.158Z,27.10
2023-02-16T12:30:41.138Z,27.50
2023-02-16T12:34:56.894Z,27.70
2023-02-16T12:39:13.231Z,27.00
2023-02-16T12:43:32.440Z,27.10
2023-02-16T12:47:40.709Z,26.70
2023-02-16T12:51:49.853Z,27.10
2023-02-16T12:55:56.514Z,27.10
2023-02-16T13:00:03.850Z,27.80
2023-02-16T13:04:15.258Z,26.80
2023-02-16T13:08:30.060Z,26.60
2023-02-16T13:12:37.218Z,27.20
2023-02-16T13:16:45.393Z,27.10
2023-02-16T13:20:50.916Z,26.80
2023-02-16T13:25:20.997Z,26.90
2023-02-16T13:29:41.326Z,26.80
2023-02-16T13:34:04.029Z,26.80
2023-02-16T13:38:28.351Z,26.50
2023-02-16T13:42:50.913Z,26.10
2023-02-16T13:46:55.272Z,25.60
2023-02-16T13:51:00.739Z,24.70
2023-02-16T13:55:05.843Z,24.40
2023-02-16T13:59:57.536Z,24.60
2023-02-16T14:04:02.842Z,24.00
2023-02-16T14:08:27.437Z,23.40
2023-02-16T14:12:34.265Z,23.00
2023-02-16T14:16:37.164Z,22.70
2023-02-16T14:20:41.377Z,22.40
2023-02-16T14:24:44.734Z,21.90
2023-02-16T14:29:12.481Z,21.30
2023-02-16T14:33:23.370Z,20.70
2023-02-16T14:37:38.016Z,20.50
2023-02-16T14:41:41.550Z,20.20
2023-02-16T14:46:03.298Z,19.90
2023-02-16T14:50:23.566Z,19.60
2023-02-16T14:55:03.424Z,19.40
2023-02-16T14:59:13.312Z,19.10
2023-02-16T15:03:18.629Z,18.80
2023-02-16T15:07:22.633Z,18.40
2023-02-16T15:11:32.331Z,17.90
2023-02-16T15:15:46.898Z,17.40
2023-02-16T15:19:51.434Z,17.00
2023-02-16T15:23:56.815Z,16.90
2023-02-16T15:28:04.339Z,16.60
2023-02-16T15:32:08.248Z,16.40
2023-02-16T15:36:13.490Z,16.20
2023-02-16T15:40:26.496Z,15.90
2023-02-16T15:44:34.235Z,15.60
2023-02-16T15:48:38.185Z,15.40
2023-02-16T15:52:41.077Z,15.20
2023-02-16T15:56:46.085Z,15.00
2023-02-16T16:00:50.296Z,14.80
2023-02-16T16:04:56.113Z,14.60
2023-02-16T16:08:59.265Z,14.50
2023-02-16T16:13:06.280Z,14.40
2023-02-16T16:17:16.551Z,14.20
2023-02-16T16:21:23.251Z,14.00
2023-02-16T16:25:32.662Z,13.90
2023-02-16T16:29:40.968Z,13.80
2023-02-16T16:33:55.873Z,13.70
2023-02-16T16:37:58.759Z,13.50
2023-02-16T16:42:26.185Z,13.50
2023-02-16T16:46:30.982Z,13.40
2023-02-16T16:50:39.408Z,13.10
2023-02-16T16:54:42.623Z,13.20
2023-02-16T16:58:49.434Z,13.00
2023-02-16T17:02:52.732Z,12.90
2023-02-16T17:06:56.841Z,12.80
2023-02-16T17:11:00.007Z,12.80
2023-02-16T17:15:03.737Z,12.50
2023-02-16T17:19:06.504Z,12.40
2023-02-16T17:23:12.940Z,12.20
2023-02-16T17:27:15.710Z,12.20
2023-02-16T17:31:18.613Z,12.30
2023-02-16T17:35:21.508Z,12.20
2023-02-16T17:39:25.813Z,12.20
2023-02-16T17:43:29.104Z,12.10
2023-02-16T17:47:31.880Z,12.10
2023-02-16T17:51:36.367Z,12.10
2023-02-16T17:55:40.763Z,12.00
2023-02-16T17:59:43.878Z,12.00
2023-02-16T18:03:46.793Z,11.90
2023-02-16T18:07:49.602Z,11.90
2023-02-16T18:11:53.845Z,11.90
2023-02-16T18:15:57.043Z,11.90
2023-02-16T18:19:59.802Z,11.80
2023-02-16T18:24:02.592Z,11.60
2023-02-16T18:28:06.826Z,11.40
2023-02-16T18:32:09.643Z,11.40
2023-02-16T18:36:12.483Z,11.40
2023-02-16T18:40:17.718Z,11.40
2023-02-16T18:44:21.881Z,11.40
2023-02-16T18:48:24.752Z,11.50
2023-02-16T18:52:27.585Z,11.50
2023-02-16T18:56:30.390Z,11.60
2023-02-16T19:00:34.578Z,11.50
2023-02-16T19:04:37.477Z,11.40
2023-02-16T19:08:40.317Z,11.50
2023-02-16T19:12:43.172Z,11.50
2023-02-16T19:16:47.717Z,11.50
2023-02-16T19:20:50.587Z,11.40
2023-02-16T19:24:53.381Z,11.50
2023-02-16T19:28:56.174Z,11.40
2023-02-16T19:33:00.368Z,11.40
2023-02-16T19:37:03.388Z,11.50
2023-02-16T19:41:09.994Z,11.40
2023-02-16T19:45:13.057Z,11.50
2023-02-16T19:49:17.205Z,11.50
2023-02-16T19:53:19.999Z,11.40
2023-02-16T19:57:22.812Z,11.30
2023-02-16T20:01:27.908Z,11.30
2023-02-16T20:05:32.125Z,11.20
2023-02-16T20:09:36.116Z,11.30
2023-02-16T20:13:39.627Z,11.30
2023-02-16T20:17:42.527Z,11.30
2023-02-16T20:21:46.784Z,11.30
2023-02-16T20:25:49.539Z,11.30
2023-02-16T20:29:52.357Z,11.30
2023-02-16T20:33:56.094Z,11.30
2023-02-16T20:38:00.278Z,11.40
2023-02-16T20:42:03.104Z,11.50
2023-02-16T20:46:08.040Z,11.30
2023-02-16T20:50:12.027Z,11.20
2023-02-16T20:54:16.179Z,11.20
2023-02-16T20:58:18.942Z,11.20
2023-02-16T21:02:21.781Z,11.30
2023-02-16T21:06:25.675Z,11.30
2023-02-16T21:10:29.908Z,11.30
2023-02-16T21:14:32.705Z,11.40
2023-02-16T21:18:36.867Z,11.40
2023-02-16T21:22:40.570Z,11.30
2023-02-16T21:26:44.825Z,11.30
2023-02-16T21:30:47.573Z,11.20
2023-02-16T21:34:50.338Z,11.40
2023-02-16T21:38:53.500Z,11.40
2023-02-16T21:42:57.654Z,11.40
2023-02-16T21:47:17.704Z,11.40
2023-02-16T21:51:24.069Z,11.30
2023-02-16T21:55:44.423Z,11.30
2023-02-16T21:59:48.543Z,11.40
2023-02-16T22:03:56.020Z,11.40
2023-02-16T22:07:59.370Z,11.40
2023-02-16T22:12:02.302Z,11.50
2023-02-16T22:16:12.444Z,11.50
2023-02-16T22:20:15.382Z,11.30
2023-02-16T22:24:20.180Z,11.40
2023-02-16T22:28:22.982Z,11.40
2023-02-16T22:32:27.220Z,11.40
2023-02-16T22:36:30.480Z,11.40
2023-02-16T22:40:33.365Z,11.40
2023-02-16T22:44:36.227Z,11.40
2023-02-16T22:48:40.889Z,11.50
2023-02-16T22:52:43.734Z,11.40
2023-02-16T22:56:46.583Z,11.40
2023-02-16T23:00:50.182Z,11.40
2023-02-16T23:04:58.557Z,11.50
2023-02-16T23:09:03.497Z,11.60
2023-02-16T23:13:07.565Z,11.40
2023-02-16T23:17:10.426Z,11.50
2023-02-16T23:21:18.146Z,11.40
2023-02-16T23:25:36.196Z,11.40
2023-02-16T23:29:39.014Z,11.40
2023-02-16T23:33:42.059Z,11.40
2023-02-16T23:37:47.638Z,11.20
2023-02-16T23:41:50.529Z,11.30
2023-02-16T23:45:53.996Z,11.40
2023-02-16T23:49:56.862Z,11.40
2023-02-16T23:54:01.073Z,11.50
2023-02-16T23:58:03.951Z,11.40
